sensor_id;sensor_type;location;lat;lon;timestamp;P1;durP1;ratioP1;P2;durP2;ratioP2
80193;SDS011;69515;42.072;21.504;2023-12-20T00:00:01;10.20;;;5.70;;
80193;SDS011;69515;42.072;21.504;2023-12-20T00:02:28;9.05;;;5.10;;
80193;SDS011;69515;42.072;21.504;2023-12-20T00:04:54;11.98;;;6.03;;
80193;SDS011;69515;42.072;21.504;2023-12-20T00:07:20;11.70;;;6.20;;
80193;SDS011;69515;42.072;21.504;2023-12-20T00:09:46;14.10;;;7.25;;
80193;SDS011;69515;42.072;21.504;2023-12-20T00:12:12;9.38;;;5.13;;
80193;SDS011;69515;42.072;21.504;2023-12-20T00:17:05;19.15;;;8.73;;
80193;SDS011;69515;42.072;21.504;2023-12-20T00:19:31;22.00;;;12.07;;
80193;SDS011;69515;42.072;21.504;2023-12-20T00:21:57;20.23;;;10.13;;
80193;SDS011;69515;42.072;21.504;2023-12-20T00:24:24;17.48;;;8.32;;
80193;SDS011;69515;42.072;21.504;2023-12-20T00:29:17;14.85;;;7.32;;
80193;SDS011;69515;42.072;21.504;2023-12-20T00:31:43;10.77;;;6.22;;
80193;SDS011;69515;42.072;21.504;2023-12-20T00:34:09;9.85;;;5.57;;
80193;SDS011;69515;42.072;21.504;2023-12-20T00:36:36;11.05;;;5.82;;
80193;SDS011;69515;42.072;21.504;2023-12-20T00:39:02;14.13;;;9.43;;
80193;SDS011;69515;42.072;21.504;2023-12-20T00:41:29;11.82;;;6.30;;
80193;SDS011;69515;42.072;21.504;2023-12-20T00:43:55;9.63;;;5.60;;
80193;SDS011;69515;42.072;21.504;2023-12-20T00:46:21;11.27;;;5.10;;
80193;SDS011;69515;42.072;21.504;2023-12-20T00:48:48;9.70;;;5.75;;
80193;SDS011;69515;42.072;21.504;2023-12-20T00:51:14;10.27;;;6.00;;
80193;SDS011;69515;42.072;21.504;2023-12-20T00:53:40;14.60;;;7.13;;
80193;SDS011;69515;42.072;21.504;2023-12-20T00:56:06;15.15;;;8.02;;
80193;SDS011;69515;42.072;21.504;2023-12-20T00:58:33;11.32;;;6.38;;
80193;SDS011;69515;42.072;21.504;2023-12-20T01:00:59;14.40;;;6.43;;
80193;SDS011;69515;42.072;21.504;2023-12-20T01:05:51;10.68;;;5.07;;
80193;SDS011;69515;42.072;21.504;2023-12-20T01:08:18;10.60;;;5.07;;
80193;SDS011;69515;42.072;21.504;2023-12-20T01:10:44;13.18;;;6.75;;
80193;SDS011;69515;42.072;21.504;2023-12-20T01:13:12;14.13;;;7.50;;
80193;SDS011;69515;42.072;21.504;2023-12-20T01:18:04;13.98;;;7.50;;
80193;SDS011;69515;42.072;21.504;2023-12-20T01:20:30;11.63;;;5.18;;
80193;SDS011;69515;42.072;21.504;2023-12-20T01:25:23;11.85;;;6.03;;
80193;SDS011;69515;42.072;21.504;2023-12-20T01:27:49;13.45;;;5.35;;
80193;SDS011;69515;42.072;21.504;2023-12-20T01:30:15;13.23;;;7.88;;
80193;SDS011;69515;42.072;21.504;2023-12-20T01:32:42;11.98;;;6.78;;
80193;SDS011;69515;42.072;21.504;2023-12-20T01:35:08;11.82;;;5.57;;
80193;SDS011;69515;42.072;21.504;2023-12-20T01:37:34;11.95;;;5.70;;
80193;SDS011;69515;42.072;21.504;2023-12-20T01:40:00;10.85;;;5.38;;
80193;SDS011;69515;42.072;21.504;2023-12-20T01:42:27;15.10;;;6.53;;
80193;SDS011;69515;42.072;21.504;2023-12-20T01:44:54;16.23;;;7.70;;
80193;SDS011;69515;42.072;21.504;2023-12-20T01:47:20;14.15;;;7.97;;
80193;SDS011;69515;42.072;21.504;2023-12-20T01:49:47;10.75;;;6.00;;
80193;SDS011;69515;42.072;21.504;2023-12-20T01:52:14;12.50;;;6.53;;
80193;SDS011;69515;42.072;21.504;2023-12-20T01:54:40;10.60;;;5.18;;
80193;SDS011;69515;42.072;21.504;2023-12-20T01:57:08;11.30;;;5.85;;
80193;SDS011;69515;42.072;21.504;2023-12-20T01:59:34;10.23;;;5.63;;
80193;SDS011;69515;42.072;21.504;2023-12-20T02:02:02;11.23;;;5.90;;
80193;SDS011;69515;42.072;21.504;2023-12-20T02:04:29;12.40;;;5.72;;
80193;SDS011;69515;42.072;21.504;2023-12-20T02:06:55;12.32;;;6.53;;
80193;SDS011;69515;42.072;21.504;2023-12-20T02:12:05;18.60;;;9.63;;
80193;SDS011;69515;42.072;21.504;2023-12-20T02:14:31;13.55;;;7.47;;
80193;SDS011;69515;42.072;21.504;2023-12-20T02:16:57;13.20;;;7.28;;
80193;SDS011;69515;42.072;21.504;2023-12-20T02:19:23;10.70;;;6.03;;
80193;SDS011;69515;42.072;21.504;2023-12-20T02:21:50;11.68;;;6.15;;
80193;SDS011;69515;42.072;21.504;2023-12-20T02:24:16;12.48;;;6.32;;
80193;SDS011;69515;42.072;21.504;2023-12-20T02:26:42;11.52;;;6.13;;
80193;SDS011;69515;42.072;21.504;2023-12-20T02:29:09;12.02;;;6.20;;
80193;SDS011;69515;42.072;21.504;2023-12-20T02:31:35;14.25;;;6.82;;
80193;SDS011;69515;42.072;21.504;2023-12-20T02:34:01;13.93;;;7.63;;
80193;SDS011;69515;42.072;21.504;2023-12-20T02:36:27;15.60;;;7.70;;
80193;SDS011;69515;42.072;21.504;2023-12-20T02:38:54;13.35;;;6.93;;
80193;SDS011;69515;42.072;21.504;2023-12-20T02:41:20;14.93;;;8.23;;
80193;SDS011;69515;42.072;21.504;2023-12-20T02:43:46;16.63;;;8.45;;
80193;SDS011;69515;42.072;21.504;2023-12-20T02:46:13;20.50;;;11.63;;
80193;SDS011;69515;42.072;21.504;2023-12-20T02:48:39;12.63;;;7.47;;
80193;SDS011;69515;42.072;21.504;2023-12-20T02:51:06;15.18;;;7.50;;
80193;SDS011;69515;42.072;21.504;2023-12-20T02:53:32;13.48;;;7.80;;
80193;SDS011;69515;42.072;21.504;2023-12-20T02:55:58;15.43;;;7.60;;
80193;SDS011;69515;42.072;21.504;2023-12-20T02:58:24;17.80;;;10.20;;
80193;SDS011;69515;42.072;21.504;2023-12-20T03:00:50;15.77;;;9.00;;
80193;SDS011;69515;42.072;21.504;2023-12-20T03:03:16;35.80;;;22.23;;
80193;SDS011;69515;42.072;21.504;2023-12-20T03:05:43;14.73;;;9.50;;
80193;SDS011;69515;42.072;21.504;2023-12-20T03:08:09;13.27;;;8.13;;
80193;SDS011;69515;42.072;21.504;2023-12-20T03:10:36;15.68;;;7.55;;
80193;SDS011;69515;42.072;21.504;2023-12-20T03:13:02;14.15;;;7.38;;
80193;SDS011;69515;42.072;21.504;2023-12-20T03:15:28;15.88;;;8.63;;
80193;SDS011;69515;42.072;21.504;2023-12-20T03:17:54;14.82;;;7.75;;
80193;SDS011;69515;42.072;21.504;2023-12-20T03:20:20;12.20;;;7.28;;
80193;SDS011;69515;42.072;21.504;2023-12-20T03:22:47;16.27;;;9.15;;
80193;SDS011;69515;42.072;21.504;2023-12-20T03:27:39;14.45;;;7.18;;
80193;SDS011;69515;42.072;21.504;2023-12-20T03:30:05;18.13;;;9.00;;
80193;SDS011;69515;42.072;21.504;2023-12-20T03:32:32;12.55;;;7.25;;
80193;SDS011;69515;42.072;21.504;2023-12-20T03:34:58;12.27;;;7.10;;
80193;SDS011;69515;42.072;21.504;2023-12-20T03:37:24;19.45;;;8.25;;
80193;SDS011;69515;42.072;21.504;2023-12-20T03:39:50;14.52;;;7.93;;
80193;SDS011;69515;42.072;21.504;2023-12-20T03:42:16;12.60;;;5.97;;
80193;SDS011;69515;42.072;21.504;2023-12-20T03:44:42;10.65;;;6.28;;
80193;SDS011;69515;42.072;21.504;2023-12-20T03:47:09;12.45;;;6.35;;
80193;SDS011;69515;42.072;21.504;2023-12-20T03:49:35;11.07;;;6.03;;
80193;SDS011;69515;42.072;21.504;2023-12-20T03:52:02;12.25;;;6.47;;
80193;SDS011;69515;42.072;21.504;2023-12-20T03:54:28;9.98;;;5.53;;
80193;SDS011;69515;42.072;21.504;2023-12-20T03:56:56;11.95;;;5.80;;
80193;SDS011;69515;42.072;21.504;2023-12-20T03:59:23;8.98;;;4.95;;
80193;SDS011;69515;42.072;21.504;2023-12-20T04:01:49;10.65;;;5.65;;
80193;SDS011;69515;42.072;21.504;2023-12-20T04:04:15;11.57;;;5.10;;
80193;SDS011;69515;42.072;21.504;2023-12-20T04:06:41;12.50;;;5.95;;
80193;SDS011;69515;42.072;21.504;2023-12-20T04:09:08;9.35;;;4.97;;
80193;SDS011;69515;42.072;21.504;2023-12-20T04:11:34;10.55;;;4.95;;
80193;SDS011;69515;42.072;21.504;2023-12-20T04:16:27;10.77;;;5.07;;
80193;SDS011;69515;42.072;21.504;2023-12-20T04:18:53;12.57;;;6.07;;
80193;SDS011;69515;42.072;21.504;2023-12-20T04:21:19;11.10;;;5.80;;
80193;SDS011;69515;42.072;21.504;2023-12-20T04:23:45;10.65;;;5.57;;
80193;SDS011;69515;42.072;21.504;2023-12-20T04:26:11;12.32;;;5.55;;
80193;SDS011;69515;42.072;21.504;2023-12-20T04:28:37;10.23;;;5.07;;
80193;SDS011;69515;42.072;21.504;2023-12-20T04:31:04;11.43;;;5.90;;
80193;SDS011;69515;42.072;21.504;2023-12-20T04:33:30;9.65;;;5.60;;
80193;SDS011;69515;42.072;21.504;2023-12-20T04:35:56;11.00;;;6.65;;
80193;SDS011;69515;42.072;21.504;2023-12-20T04:38:22;12.90;;;6.88;;
80193;SDS011;69515;42.072;21.504;2023-12-20T04:40:49;14.57;;;7.40;;
80193;SDS011;69515;42.072;21.504;2023-12-20T04:43:15;17.73;;;9.82;;
80193;SDS011;69515;42.072;21.504;2023-12-20T04:45:41;19.52;;;9.15;;
80193;SDS011;69515;42.072;21.504;2023-12-20T04:48:07;16.33;;;9.18;;
80193;SDS011;69515;42.072;21.504;2023-12-20T04:50:33;15.10;;;9.25;;
80193;SDS011;69515;42.072;21.504;2023-12-20T04:53:00;14.98;;;9.30;;
80193;SDS011;69515;42.072;21.504;2023-12-20T04:55:26;15.35;;;7.22;;
80193;SDS011;69515;42.072;21.504;2023-12-20T04:57:52;14.55;;;7.28;;
80193;SDS011;69515;42.072;21.504;2023-12-20T05:00:19;12.02;;;7.15;;
80193;SDS011;69515;42.072;21.504;2023-12-20T05:02:46;14.13;;;8.23;;
80193;SDS011;69515;42.072;21.504;2023-12-20T05:05:12;16.23;;;9.75;;
80193;SDS011;69515;42.072;21.504;2023-12-20T05:07:40;16.73;;;9.82;;
80193;SDS011;69515;42.072;21.504;2023-12-20T05:10:06;14.30;;;7.38;;
80193;SDS011;69515;42.072;21.504;2023-12-20T05:12:35;16.25;;;8.63;;
80193;SDS011;69515;42.072;21.504;2023-12-20T05:15:02;18.60;;;9.32;;
80193;SDS011;69515;42.072;21.504;2023-12-20T05:17:28;14.10;;;7.15;;
80193;SDS011;69515;42.072;21.504;2023-12-20T05:19:54;12.57;;;6.45;;
80193;SDS011;69515;42.072;21.504;2023-12-20T05:22:20;13.93;;;7.00;;
80193;SDS011;69515;42.072;21.504;2023-12-20T05:24:46;12.57;;;7.50;;
80193;SDS011;69515;42.072;21.504;2023-12-20T05:27:12;15.80;;;7.75;;
80193;SDS011;69515;42.072;21.504;2023-12-20T05:29:39;12.77;;;7.60;;
80193;SDS011;69515;42.072;21.504;2023-12-20T05:32:05;14.05;;;7.25;;
80193;SDS011;69515;42.072;21.504;2023-12-20T05:34:31;14.15;;;7.55;;
80193;SDS011;69515;42.072;21.504;2023-12-20T05:36:57;16.85;;;7.90;;
80193;SDS011;69515;42.072;21.504;2023-12-20T05:39:24;17.48;;;8.48;;
80193;SDS011;69515;42.072;21.504;2023-12-20T05:41:50;17.42;;;8.15;;
80193;SDS011;69515;42.072;21.504;2023-12-20T05:44:17;15.68;;;7.68;;
80193;SDS011;69515;42.072;21.504;2023-12-20T05:46:44;15.05;;;7.75;;
80193;SDS011;69515;42.072;21.504;2023-12-20T05:49:10;14.15;;;8.20;;
80193;SDS011;69515;42.072;21.504;2023-12-20T05:51:36;13.93;;;7.03;;
80193;SDS011;69515;42.072;21.504;2023-12-20T05:54:02;14.88;;;7.65;;
80193;SDS011;69515;42.072;21.504;2023-12-20T05:56:29;13.13;;;7.93;;
80193;SDS011;69515;42.072;21.504;2023-12-20T05:58:55;15.48;;;8.48;;
80193;SDS011;69515;42.072;21.504;2023-12-20T06:01:21;16.35;;;8.07;;
80193;SDS011;69515;42.072;21.504;2023-12-20T06:03:47;17.98;;;8.90;;
80193;SDS011;69515;42.072;21.504;2023-12-20T06:06:14;16.67;;;8.18;;
80193;SDS011;69515;42.072;21.504;2023-12-20T06:08:40;11.77;;;6.22;;
80193;SDS011;69515;42.072;21.504;2023-12-20T06:11:08;13.23;;;6.95;;
80193;SDS011;69515;42.072;21.504;2023-12-20T06:13:34;13.18;;;7.47;;
80193;SDS011;69515;42.072;21.504;2023-12-20T06:16:00;17.98;;;7.78;;
80193;SDS011;69515;42.072;21.504;2023-12-20T06:18:27;13.35;;;7.75;;
80193;SDS011;69515;42.072;21.504;2023-12-20T06:20:53;17.50;;;8.45;;
80193;SDS011;69515;42.072;21.504;2023-12-20T06:23:19;13.15;;;7.03;;
80193;SDS011;69515;42.072;21.504;2023-12-20T06:25:45;14.35;;;7.80;;
80193;SDS011;69515;42.072;21.504;2023-12-20T06:28:11;15.50;;;8.63;;
80193;SDS011;69515;42.072;21.504;2023-12-20T06:30:39;14.80;;;7.80;;
80193;SDS011;69515;42.072;21.504;2023-12-20T06:33:06;15.25;;;8.70;;
80193;SDS011;69515;42.072;21.504;2023-12-20T06:35:32;22.25;;;11.35;;
80193;SDS011;69515;42.072;21.504;2023-12-20T06:37:58;22.77;;;12.90;;
80193;SDS011;69515;42.072;21.504;2023-12-20T06:40:24;21.70;;;12.55;;
80193;SDS011;69515;42.072;21.504;2023-12-20T06:42:50;26.73;;;13.90;;
80193;SDS011;69515;42.072;21.504;2023-12-20T06:45:16;28.25;;;15.80;;
80193;SDS011;69515;42.072;21.504;2023-12-20T06:47:43;31.73;;;16.45;;
80193;SDS011;69515;42.072;21.504;2023-12-20T06:52:35;19.38;;;11.07;;
80193;SDS011;69515;42.072;21.504;2023-12-20T06:55:01;20.08;;;12.50;;
80193;SDS011;69515;42.072;21.504;2023-12-20T06:57:27;27.25;;;14.25;;
80193;SDS011;69515;42.072;21.504;2023-12-20T06:59:55;28.75;;;16.92;;
80193;SDS011;69515;42.072;21.504;2023-12-20T07:02:23;24.55;;;14.75;;
80193;SDS011;69515;42.072;21.504;2023-12-20T07:04:49;26.02;;;14.38;;
80193;SDS011;69515;42.072;21.504;2023-12-20T07:07:15;28.90;;;14.20;;
80193;SDS011;69515;42.072;21.504;2023-12-20T07:09:42;23.38;;;14.35;;
80193;SDS011;69515;42.072;21.504;2023-12-20T07:12:28;25.15;;;14.18;;
80193;SDS011;69515;42.072;21.504;2023-12-20T07:17:21;29.58;;;15.82;;
80193;SDS011;69515;42.072;21.504;2023-12-20T07:19:48;29.13;;;16.25;;
80193;SDS011;69515;42.072;21.504;2023-12-20T07:22:14;30.05;;;17.55;;
80193;SDS011;69515;42.072;21.504;2023-12-20T07:27:06;30.48;;;16.42;;
80193;SDS011;69515;42.072;21.504;2023-12-20T07:31:58;27.65;;;16.27;;
80193;SDS011;69515;42.072;21.504;2023-12-20T07:34:24;28.65;;;17.25;;
80193;SDS011;69515;42.072;21.504;2023-12-20T07:39:16;30.42;;;17.90;;
80193;SDS011;69515;42.072;21.504;2023-12-20T07:41:43;38.55;;;20.42;;
80193;SDS011;69515;42.072;21.504;2023-12-20T07:46:36;33.20;;;18.70;;
80193;SDS011;69515;42.072;21.504;2023-12-20T07:51:28;35.17;;;21.35;;
80193;SDS011;69515;42.072;21.504;2023-12-20T07:56:20;40.80;;;23.83;;
80193;SDS011;69515;42.072;21.504;2023-12-20T08:01:15;36.13;;;23.35;;
80193;SDS011;69515;42.072;21.504;2023-12-20T08:03:43;38.38;;;23.73;;
80193;SDS011;69515;42.072;21.504;2023-12-20T08:06:09;40.92;;;23.15;;
80193;SDS011;69515;42.072;21.504;2023-12-20T08:11:01;36.65;;;23.40;;
80193;SDS011;69515;42.072;21.504;2023-12-20T08:13:28;37.20;;;22.58;;
80193;SDS011;69515;42.072;21.504;2023-12-20T08:15:55;35.67;;;21.52;;
80193;SDS011;69515;42.072;21.504;2023-12-20T08:18:22;35.38;;;19.88;;
80193;SDS011;69515;42.072;21.504;2023-12-20T08:20:48;34.17;;;21.27;;
80193;SDS011;69515;42.072;21.504;2023-12-20T08:23:15;31.33;;;20.98;;
80193;SDS011;69515;42.072;21.504;2023-12-20T08:25:41;30.20;;;19.73;;
80193;SDS011;69515;42.072;21.504;2023-12-20T08:28:08;35.95;;;20.45;;
80193;SDS011;69515;42.072;21.504;2023-12-20T08:30:36;31.52;;;18.60;;
80193;SDS011;69515;42.072;21.504;2023-12-20T08:33:03;26.50;;;17.00;;
80193;SDS011;69515;42.072;21.504;2023-12-20T08:35:29;31.67;;;18.75;;
80193;SDS011;69515;42.072;21.504;2023-12-20T08:37:56;28.83;;;17.35;;
80193;SDS011;69515;42.072;21.504;2023-12-20T08:40:22;28.83;;;17.90;;
80193;SDS011;69515;42.072;21.504;2023-12-20T08:45:34;25.70;;;16.23;;
80193;SDS011;69515;42.072;21.504;2023-12-20T08:48:02;26.00;;;17.40;;
80193;SDS011;69515;42.072;21.504;2023-12-20T08:50:29;24.20;;;16.50;;
80193;SDS011;69515;42.072;21.504;2023-12-20T08:52:56;27.35;;;17.27;;
80193;SDS011;69515;42.072;21.504;2023-12-20T08:55:23;29.77;;;17.48;;
80193;SDS011;69515;42.072;21.504;2023-12-20T08:57:49;28.60;;;17.77;;
80193;SDS011;69515;42.072;21.504;2023-12-20T09:00:15;27.65;;;16.80;;
80193;SDS011;69515;42.072;21.504;2023-12-20T09:02:42;31.05;;;17.58;;
80193;SDS011;69515;42.072;21.504;2023-12-20T09:05:09;27.98;;;17.70;;
80193;SDS011;69515;42.072;21.504;2023-12-20T09:07:36;31.00;;;18.55;;
80193;SDS011;69515;42.072;21.504;2023-12-20T09:10:02;31.02;;;18.00;;
80193;SDS011;69515;42.072;21.504;2023-12-20T09:12:29;31.48;;;18.67;;
80193;SDS011;69515;42.072;21.504;2023-12-20T09:14:55;29.80;;;18.85;;
80193;SDS011;69515;42.072;21.504;2023-12-20T09:17:21;30.77;;;19.15;;
80193;SDS011;69515;42.072;21.504;2023-12-20T09:19:49;35.08;;;21.52;;
80193;SDS011;69515;42.072;21.504;2023-12-20T09:22:17;37.10;;;20.63;;
80193;SDS011;69515;42.072;21.504;2023-12-20T09:24:44;33.65;;;20.92;;
80193;SDS011;69515;42.072;21.504;2023-12-20T09:27:11;41.72;;;23.88;;
80193;SDS011;69515;42.072;21.504;2023-12-20T09:29:37;32.53;;;21.42;;
80193;SDS011;69515;42.072;21.504;2023-12-20T09:32:03;33.35;;;21.10;;
80193;SDS011;69515;42.072;21.504;2023-12-20T09:34:29;34.53;;;19.85;;
80193;SDS011;69515;42.072;21.504;2023-12-20T09:36:56;34.90;;;20.00;;
80193;SDS011;69515;42.072;21.504;2023-12-20T09:39:22;34.15;;;20.80;;
80193;SDS011;69515;42.072;21.504;2023-12-20T09:41:57;34.92;;;22.58;;
80193;SDS011;69515;42.072;21.504;2023-12-20T09:44:26;35.00;;;21.65;;
80193;SDS011;69515;42.072;21.504;2023-12-20T09:46:52;36.05;;;23.25;;
80193;SDS011;69515;42.072;21.504;2023-12-20T09:49:18;36.05;;;21.50;;
80193;SDS011;69515;42.072;21.504;2023-12-20T09:51:48;39.88;;;23.55;;
80193;SDS011;69515;42.072;21.504;2023-12-20T09:54:19;40.50;;;25.27;;
80193;SDS011;69515;42.072;21.504;2023-12-20T09:56:45;35.60;;;21.67;;
80193;SDS011;69515;42.072;21.504;2023-12-20T09:59:12;39.17;;;22.40;;
80193;SDS011;69515;42.072;21.504;2023-12-20T10:01:42;39.30;;;22.30;;
80193;SDS011;69515;42.072;21.504;2023-12-20T10:04:09;38.30;;;22.83;;
80193;SDS011;69515;42.072;21.504;2023-12-20T10:06:41;39.30;;;22.73;;
80193;SDS011;69515;42.072;21.504;2023-12-20T10:09:07;36.13;;;22.40;;
80193;SDS011;69515;42.072;21.504;2023-12-20T10:11:37;39.30;;;22.70;;
80193;SDS011;69515;42.072;21.504;2023-12-20T10:14:04;34.03;;;19.95;;
80193;SDS011;69515;42.072;21.504;2023-12-20T10:16:31;29.50;;;17.45;;
80193;SDS011;69515;42.072;21.504;2023-12-20T10:18:58;26.55;;;13.93;;
80193;SDS011;69515;42.072;21.504;2023-12-20T10:21:24;34.53;;;17.63;;
80193;SDS011;69515;42.072;21.504;2023-12-20T10:23:54;35.20;;;18.88;;
80193;SDS011;69515;42.072;21.504;2023-12-20T10:26:24;32.95;;;19.17;;
80193;SDS011;69515;42.072;21.504;2023-12-20T10:28:51;29.88;;;18.63;;
80193;SDS011;69515;42.072;21.504;2023-12-20T10:31:30;31.35;;;15.88;;
80193;SDS011;69515;42.072;21.504;2023-12-20T10:33:58;27.85;;;15.63;;
80193;SDS011;69515;42.072;21.504;2023-12-20T10:36:25;26.08;;;14.68;;
80193;SDS011;69515;42.072;21.504;2023-12-20T10:38:52;21.40;;;12.77;;
80193;SDS011;69515;42.072;21.504;2023-12-20T10:41:20;15.88;;;9.10;;
80193;SDS011;69515;42.072;21.504;2023-12-20T10:43:51;17.20;;;9.85;;
80193;SDS011;69515;42.072;21.504;2023-12-20T10:46:18;17.48;;;9.52;;
80193;SDS011;69515;42.072;21.504;2023-12-20T10:48:45;17.05;;;10.93;;
80193;SDS011;69515;42.072;21.504;2023-12-20T10:51:13;19.17;;;10.68;;
80193;SDS011;69515;42.072;21.504;2023-12-20T10:53:40;19.98;;;12.88;;
80193;SDS011;69515;42.072;21.504;2023-12-20T10:56:06;25.55;;;14.25;;
80193;SDS011;69515;42.072;21.504;2023-12-20T10:58:34;22.75;;;14.55;;
80193;SDS011;69515;42.072;21.504;2023-12-20T11:01:02;28.35;;;17.48;;
80193;SDS011;69515;42.072;21.504;2023-12-20T11:03:32;35.65;;;21.23;;
80193;SDS011;69515;42.072;21.504;2023-12-20T11:06:25;31.75;;;17.75;;
80193;SDS011;69515;42.072;21.504;2023-12-20T11:08:49;33.47;;;20.02;;
80193;SDS011;69515;42.072;21.504;2023-12-20T11:11:23;30.30;;;18.98;;
80193;SDS011;69515;42.072;21.504;2023-12-20T11:14:00;38.65;;;21.52;;
80193;SDS011;69515;42.072;21.504;2023-12-20T11:16:27;38.10;;;20.55;;
80193;SDS011;69515;42.072;21.504;2023-12-20T11:18:53;32.00;;;16.98;;
80193;SDS011;69515;42.072;21.504;2023-12-20T11:21:19;35.42;;;20.08;;
80193;SDS011;69515;42.072;21.504;2023-12-20T11:23:46;40.33;;;21.98;;
80193;SDS011;69515;42.072;21.504;2023-12-20T11:26:15;30.70;;;18.65;;
80193;SDS011;69515;42.072;21.504;2023-12-20T11:28:42;33.97;;;19.23;;
80193;SDS011;69515;42.072;21.504;2023-12-20T11:31:08;26.20;;;15.27;;
80193;SDS011;69515;42.072;21.504;2023-12-20T11:33:39;25.00;;;14.20;;
80193;SDS011;69515;42.072;21.504;2023-12-20T11:36:24;25.10;;;14.40;;
80193;SDS011;69515;42.072;21.504;2023-12-20T11:38:58;21.50;;;12.55;;
80193;SDS011;69515;42.072;21.504;2023-12-20T11:41:25;25.05;;;14.23;;
80193;SDS011;69515;42.072;21.504;2023-12-20T11:43:55;24.23;;;13.35;;
80193;SDS011;69515;42.072;21.504;2023-12-20T11:46:41;20.92;;;11.68;;
80193;SDS011;69515;42.072;21.504;2023-12-20T11:49:08;18.67;;;10.40;;
80193;SDS011;69515;42.072;21.504;2023-12-20T11:51:35;18.90;;;10.70;;
80193;SDS011;69515;42.072;21.504;2023-12-20T11:54:01;20.90;;;10.93;;
80193;SDS011;69515;42.072;21.504;2023-12-20T11:56:28;19.67;;;11.45;;
80193;SDS011;69515;42.072;21.504;2023-12-20T11:58:54;19.90;;;11.95;;
80193;SDS011;69515;42.072;21.504;2023-12-20T12:01:21;22.92;;;13.18;;
80193;SDS011;69515;42.072;21.504;2023-12-20T12:03:48;21.17;;;12.15;;
80193;SDS011;69515;42.072;21.504;2023-12-20T12:06:15;22.88;;;12.60;;
80193;SDS011;69515;42.072;21.504;2023-12-20T12:08:41;27.75;;;15.43;;
80193;SDS011;69515;42.072;21.504;2023-12-20T12:11:08;34.55;;;15.63;;
80193;SDS011;69515;42.072;21.504;2023-12-20T12:13:34;28.45;;;15.13;;
80193;SDS011;69515;42.072;21.504;2023-12-20T12:16:00;24.77;;;14.50;;
80193;SDS011;69515;42.072;21.504;2023-12-20T12:18:27;28.58;;;15.80;;
80193;SDS011;69515;42.072;21.504;2023-12-20T12:20:59;31.70;;;15.68;;
80193;SDS011;69515;42.072;21.504;2023-12-20T12:23:26;30.35;;;17.70;;
80193;SDS011;69515;42.072;21.504;2023-12-20T12:25:53;29.13;;;17.20;;
80193;SDS011;69515;42.072;21.504;2023-12-20T12:28:20;32.83;;;17.88;;
80193;SDS011;69515;42.072;21.504;2023-12-20T12:30:57;28.75;;;17.67;;
80193;SDS011;69515;42.072;21.504;2023-12-20T12:33:24;31.88;;;16.80;;
80193;SDS011;69515;42.072;21.504;2023-12-20T12:35:51;29.77;;;17.65;;
80193;SDS011;69515;42.072;21.504;2023-12-20T12:38:20;31.83;;;17.55;;
80193;SDS011;69515;42.072;21.504;2023-12-20T12:40:47;32.63;;;18.77;;
80193;SDS011;69515;42.072;21.504;2023-12-20T12:43:33;31.15;;;18.73;;
80193;SDS011;69515;42.072;21.504;2023-12-20T12:45:59;31.98;;;17.67;;
80193;SDS011;69515;42.072;21.504;2023-12-20T12:48:26;34.78;;;18.95;;
80193;SDS011;69515;42.072;21.504;2023-12-20T12:50:53;40.03;;;21.58;;
80193;SDS011;69515;42.072;21.504;2023-12-20T12:53:24;35.42;;;20.02;;
80193;SDS011;69515;42.072;21.504;2023-12-20T12:55:51;38.10;;;21.00;;
80193;SDS011;69515;42.072;21.504;2023-12-20T12:58:18;37.08;;;20.05;;
80193;SDS011;69515;42.072;21.504;2023-12-20T13:00:46;35.95;;;20.25;;
80193;SDS011;69515;42.072;21.504;2023-12-20T13:03:13;41.38;;;19.40;;
80193;SDS011;69515;42.072;21.504;2023-12-20T13:05:39;39.80;;;20.05;;
80193;SDS011;69515;42.072;21.504;2023-12-20T13:08:06;37.47;;;22.17;;
80193;SDS011;69515;42.072;21.504;2023-12-20T13:10:33;36.63;;;20.92;;
80193;SDS011;69515;42.072;21.504;2023-12-20T13:12:59;38.83;;;19.67;;
80193;SDS011;69515;42.072;21.504;2023-12-20T13:15:25;35.22;;;20.20;;
80193;SDS011;69515;42.072;21.504;2023-12-20T13:17:52;43.58;;;20.20;;
80193;SDS011;69515;42.072;21.504;2023-12-20T13:20:18;40.22;;;20.90;;
80193;SDS011;69515;42.072;21.504;2023-12-20T13:22:46;36.13;;;20.08;;
80193;SDS011;69515;42.072;21.504;2023-12-20T13:25:16;38.33;;;21.23;;
80193;SDS011;69515;42.072;21.504;2023-12-20T13:27:42;38.78;;;19.38;;
80193;SDS011;69515;42.072;21.504;2023-12-20T13:30:08;38.03;;;22.33;;
80193;SDS011;69515;42.072;21.504;2023-12-20T13:32:35;35.70;;;20.48;;
80193;SDS011;69515;42.072;21.504;2023-12-20T13:35:24;35.50;;;19.58;;
80193;SDS011;69515;42.072;21.504;2023-12-20T13:37:50;45.97;;;23.77;;
80193;SDS011;69515;42.072;21.504;2023-12-20T13:40:17;44.30;;;24.83;;
80193;SDS011;69515;42.072;21.504;2023-12-20T13:42:47;47.42;;;27.55;;
80193;SDS011;69515;42.072;21.504;2023-12-20T13:45:13;54.63;;;28.02;;
80193;SDS011;69515;42.072;21.504;2023-12-20T13:47:41;53.88;;;28.70;;
80193;SDS011;69515;42.072;21.504;2023-12-20T13:50:08;53.75;;;30.20;;
80193;SDS011;69515;42.072;21.504;2023-12-20T13:52:35;58.85;;;28.85;;
80193;SDS011;69515;42.072;21.504;2023-12-20T13:55:01;55.17;;;29.05;;
80193;SDS011;69515;42.072;21.504;2023-12-20T13:57:28;57.47;;;31.90;;
80193;SDS011;69515;42.072;21.504;2023-12-20T13:59:55;56.00;;;31.08;;
80193;SDS011;69515;42.072;21.504;2023-12-20T14:02:24;72.97;;;38.05;;
80193;SDS011;69515;42.072;21.504;2023-12-20T14:05:11;68.80;;;37.58;;
80193;SDS011;69515;42.072;21.504;2023-12-20T14:07:45;65.70;;;32.80;;
80193;SDS011;69515;42.072;21.504;2023-12-20T14:10:12;61.30;;;33.13;;
80193;SDS011;69515;42.072;21.504;2023-12-20T14:12:39;62.33;;;32.17;;
80193;SDS011;69515;42.072;21.504;2023-12-20T14:15:05;60.15;;;34.28;;
80193;SDS011;69515;42.072;21.504;2023-12-20T14:17:39;52.15;;;28.42;;
80193;SDS011;69515;42.072;21.504;2023-12-20T14:20:07;48.45;;;27.33;;
80193;SDS011;69515;42.072;21.504;2023-12-20T14:22:33;44.55;;;24.30;;
80193;SDS011;69515;42.072;21.504;2023-12-20T14:25:00;47.47;;;26.88;;
80193;SDS011;69515;42.072;21.504;2023-12-20T14:30:27;38.50;;;22.70;;
80193;SDS011;69515;42.072;21.504;2023-12-20T14:33:07;29.27;;;17.20;;
80193;SDS011;69515;42.072;21.504;2023-12-20T14:35:50;33.42;;;19.10;;
80193;SDS011;69515;42.072;21.504;2023-12-20T14:38:20;30.17;;;18.02;;
80193;SDS011;69515;42.072;21.504;2023-12-20T14:40:48;26.88;;;13.98;;
80193;SDS011;69515;42.072;21.504;2023-12-20T14:43:36;26.73;;;15.18;;
80193;SDS011;69515;42.072;21.504;2023-12-20T14:46:03;24.08;;;14.73;;
80193;SDS011;69515;42.072;21.504;2023-12-20T14:48:35;29.83;;;14.45;;
80193;SDS011;69515;42.072;21.504;2023-12-20T14:51:05;25.98;;;15.32;;
80193;SDS011;69515;42.072;21.504;2023-12-20T14:53:52;27.73;;;14.85;;
80193;SDS011;69515;42.072;21.504;2023-12-20T14:56:19;24.75;;;15.70;;
80193;SDS011;69515;42.072;21.504;2023-12-20T14:58:46;27.27;;;14.55;;
80193;SDS011;69515;42.072;21.504;2023-12-20T15:01:15;23.45;;;12.43;;
80193;SDS011;69515;42.072;21.504;2023-12-20T15:03:49;23.10;;;13.20;;